Fowler, New York
Current Conditions -  °F | °C
As of 5:19 PM on Thursday 27 Nov 2014 (Local Time) from KGTB Reporting Station
Haze Haze  
Wind Chill: 25°   Ceiling: 1300
Heat Index: 25°   Visibility: 5mi
Dew Point: 25°   Wind: 0mph
Humidity: 100%   Direction: NA
Pressure: 30.03"   Gusts: NA
Location:  44.3309°N, 75.4775°W
Report Text: KGTB 272219Z AUTO 00000KT 5SM UP BR OVC013 M04/M04 A3003 RMK AO2 UPB2218 CIG 013V017
Loading
Personal Weather Stations






























Interactive Weather Map New forecast layout! Learn more

10-Day Weather Forecast

Advertisements
Track Severe Weather on mobile